Flight Track Log - Related Links

Times and Time Zones

All times are in EDT time to prevent confusion due to time zone crossing. See the N413QS flight status page for this flight to view local times or setup timezone preferences in your user account.

Time Position Orientation Groundspeed Altitude Reporting Facility
EDT Latitude Longitude Course Direction KTS MPH feet Rate Location/Type
Tue 11:34:05 PM 42.1997 -83.3525 184° South 170 196 1,800  Level Cleveland Center
Tue 11:34:26 PM 42.1836 -83.3539 184° South 168 193 3,600 4,683 Climbing FAA TRACON SMA TRACON (SMA)
Tue 11:34:46 PM 42.1711 -83.3572 191° South 160 184 5,000 4,200 Climbing FAA TRACON SMA TRACON (SMA)
Tue 11:35:06 PM 42.1550 -83.3608 189° South 170 196 6,400 2,850 Climbing FAA TRACON SMA TRACON (SMA)
Tue 11:35:26 PM 42.1392 -83.3639 188° South 212 244 6,900 2,550 Climbing FAA TRACON SMA TRACON (SMA)
Tue 11:35:46 PM 42.1158 -83.3686 189° South 238 274 8,100 3,667 Climbing FAA TRACON SMA TRACON (SMA)
Tue 11:36:02 PM 42.0969 -83.3733 191° South 249 287 9,100 2,921 Climbing Cleveland Center
Tue 11:37:02 PM 42.0178 -83.3753 181° South 257 296 11,800 2,550 Climbing Cleveland Center
Tue 11:38:02 PM 41.9344 -83.3689 177° South 306 352 14,200 2,650 Climbing Cleveland Center
Tue 11:39:02 PM 41.8264 -83.3558 175° South 341 392 17,100 2,850 Climbing Cleveland Center
Tue 11:40:02 PM 41.7222 -83.3486 177° South 367 422 19,900 2,750 Climbing Cleveland Center
Tue 11:41:02 PM 41.6119 -83.3383 176° South 380 437 22,600 2,650 Climbing Cleveland Center
Tue 11:42:02 PM 41.4997 -83.3225 174° South 393 452 25,200 2,500 Climbing Cleveland Center
Tue 11:43:02 PM 41.3867 -83.2622 158° South 413 475 27,600 2,300 Climbing Cleveland Center
Tue 11:44:02 PM 41.2714 -83.1994 158° South 425 489 29,800 2,450 Climbing Cleveland Center
Tue 11:45:02 PM 41.1706 -83.1403 156° South 444 511 32,500 2,400 Climbing Cleveland Center
Tue 11:46:02 PM 41.0531 -83.0750 157° South 454 522 34,600 2,167 Climbing Cleveland Center
Tue 11:48:02 PM 40.8167 -82.9458 158° South 453 521 39,000 1,989 Climbing Indianapolis Center
Tue 11:49:03 PM 40.7014 -82.8842 158° South 445 512 40,600 984 Climbing Indianapolis Center
Tue 11:50:04 PM 40.5786 -82.8425 166° South 455 524 41,000 197 Climbing Indianapolis Center
Tue 11:51:05 PM 40.4417 -82.8136 171° South 461 531 41,000  Level Indianapolis Center
Tue 11:52:06 PM 40.3214 -82.7883 171° South 467 537 41,000  Level Indianapolis Center
Tue 11:53:07 PM 40.1819 -82.7575 170° South 466 536 41,000  Level Indianapolis Center
Tue 11:54:08 PM 40.0536 -82.7300 171° South 462 532 41,000  Level Indianapolis Center
Tue 11:55:09 PM 39.9233 -82.7017 171° South 465 535 41,000  Level Indianapolis Center
Tue 11:56:10 PM 39.7939 -82.6739 171° South 465 535 41,000  Level Indianapolis Center
Tue 11:57:11 PM 39.6633 -82.6461 171° South 467 537 41,000  Level Indianapolis Center
Tue 11:58:12 PM 39.5300 -82.6186 171° South 476 548 41,000  Level Indianapolis Center
Tue 11:59:13 PM 39.3994 -82.5908 171° South 470 541 41,000  Level Indianapolis Center
Wed 12:00:14 AM 39.2717 -82.5636 171° South 462 532 41,000  Level Indianapolis Center
Wed 12:01:15 AM 39.1494 -82.5378 171° South 459 528 41,000  Level Indianapolis Center
Wed 12:02:16 AM 39.0219 -82.5103 170° South 465 535 41,000  Level Indianapolis Center
Wed 12:03:17 AM 38.8922 -82.4850 171° South 471 542 41,000  Level Indianapolis Center
Wed 12:04:18 AM 38.7642 -82.4575 170° South 471 542 41,000  Level Indianapolis Center
Wed 12:05:19 AM 38.6356 -82.4303 171° South 471 542 41,000  Level Indianapolis Center
Wed 12:06:20 AM 38.5067 -82.4042 171° South 471 542 41,000  Level Indianapolis Center
Wed 12:07:21 AM 38.3536 -82.3719 171° South 466 536 41,000  Level Indianapolis Center
Wed 12:08:22 AM 38.2258 -82.3472 171° South 466 536 41,000  Level Indianapolis Center
Wed 12:09:23 AM 38.0983 -82.3214 171° South 466 536 41,000  Level Indianapolis Center
Wed 12:10:24 AM 37.9700 -82.2961 171° South 465 535 41,000  Level Indianapolis Center
Wed 12:11:25 AM 37.8381 -82.2686 171° South 479 551 41,000  Level Indianapolis Center
Wed 12:12:26 AM 37.7058 -82.2400 170° South 480 552 41,000  Level Indianapolis Center
Wed 12:13:27 AM 37.5731 -82.2167 172° South 481 554 41,000  Level Indianapolis Center
Wed 12:14:28 AM 37.4439 -82.1969 173° South 469 540 41,000  Level Indianapolis Center
Wed 12:15:28 AM 37.3092 -82.1719 172° South 480 552 41,000  Level Indianapolis Center
Wed 12:15:53 AM 37.2450 -82.1592 171° South 482 555 41,000  Level Atlanta Center
Wed 12:16:53 AM 37.1153 -82.1389 173° South 519 597 41,000  Level Atlanta Center
Wed 12:17:53 AM 36.9858 -82.1158 172° South 482 555 41,000  Level Atlanta Center
Wed 12:18:31 AM 36.9164 -82.1050 173° South 468 539 41,000  Level Indianapolis Center
Wed 12:18:53 AM 36.8686 -82.0953 171° South 477 549 41,000  Level Atlanta Center
Wed 12:19:53 AM 36.7369 -82.0728 172° South 477 549 41,000  Level Atlanta Center
Wed 12:20:53 AM 36.6094 -82.0525 173° South 477 549 41,000  Level Atlanta Center
Wed 12:21:53 AM 36.4778 -82.0300 172° South 477 549 41,000  Level Atlanta Center
Wed 12:22:53 AM 36.3481 -82.0075 172° South 477 549 41,000  Level Atlanta Center
Wed 12:23:53 AM 36.2100 -81.9853 173° South 471 542 41,000  Level Atlanta Center
Wed 12:24:53 AM 36.0783 -81.9656 173° South 465 535 41,000  Level Atlanta Center
Wed 12:25:53 AM 35.9486 -81.9456 173° South 470 541 41,000  Level Atlanta Center
Wed 12:26:53 AM 35.8189 -81.9208 171° South 470 541 41,000  Level Atlanta Center
Wed 12:27:53 AM 35.6892 -81.9039 174° South 470 541 41,000  Level Atlanta Center
Wed 12:28:53 AM 35.5575 -81.8792 171° South 476 548 41,000  Level Atlanta Center
Wed 12:29:53 AM 35.4256 -81.8597 173° South 481 554 41,000  Level Atlanta Center
Wed 12:30:53 AM 35.3000 -81.8400 173° South 481 554 41,000  Level Atlanta Center
Wed 12:31:53 AM 35.1661 -81.8156 172° South 481 554 41,000 -250 Level Atlanta Center
Wed 12:32:53 AM 35.0342 -81.7964 173° South 481 554 40,500 -750 Descending Atlanta Center
Wed 12:33:53 AM 34.9044 -81.7719 171° South 478 550 39,500 -1,050 Descending Atlanta Center
Wed 12:34:53 AM 34.7706 -81.7528 173° South 478 550 38,400 -950 Descending Atlanta Center
Wed 12:35:53 AM 34.6533 -81.7333 172° South 486 559 37,600 -800 Descending Atlanta Center
Wed 12:37:00 AM 34.5297 -81.6906 164° South  Level FlightAware Approximate
Wed 12:44:00 AM 33.7408 -81.4968 174° South  Level FlightAware Approximate
Wed 12:45:00 AM 33.6265 -81.4810 164° South  Level FlightAware Approximate
Wed 12:46:00 AM 33.5135 -81.4559 173° South  Level FlightAware Approximate
Wed 12:47:00 AM 33.3993 -81.4383 173° South  Level FlightAware Approximate
Wed 12:48:00 AM 33.2879 -81.4075 170° South  Level FlightAware Approximate
Wed 12:49:00 AM 33.1743 -81.3848 170° South  Level FlightAware Approximate
Wed 12:50:00 AM 33.0608 -81.3621 170° South  Level FlightAware Approximate
Wed 12:51:00 AM 32.9472 -81.3394 170° South  Level FlightAware Approximate
Wed 12:52:00 AM 32.8328 -81.3259 175° South  Level FlightAware Approximate
Wed 12:53:00 AM 32.7184 -81.3103 170° South  Level FlightAware Approximate
Wed 12:54:00 AM 32.6071 -81.2790 172° South  Level FlightAware Approximate
Wed 12:55:00 AM 32.4933 -81.2586 170° South  Level FlightAware Approximate
Wed 12:56:00 AM 32.3797 -81.2359 170° South  Level FlightAware Approximate
Wed 12:57:00 AM 32.2699 -81.2167 180° South  Level FlightAware Approximate
Wed 12:58:00 AM 32.1689 -81.2000 180° South  Level FlightAware Approximate
Wed 12:59:00 AM 32.1276 -81.2021 North  Level Estimated
Wed 01:00:00 AM 32.1276 -81.2021 North  Level Estimated
Wed 01:01:00 AM 32.1276 -81.2021 North  Level Estimated
Wed 01:02:00 AM 32.1276 -81.2021 North  Level Estimated
Wed 01:03:00 AM 32.1276 -81.2021 North  Level Estimated
Wed 01:04:00 AM 32.1276 -81.2021 North  Level Estimated
Wed 01:05:00 AM 32.1276 -81.2021 North  Level Estimated
Wed 01:06:00 AM 32.1276 -81.2021 North  Level Estimated
Wed 01:07:00 AM 32.1276 -81.2021 North  Level Estimated
Wed 01:08:00 AM 32.1276 -81.2021 North  Level Estimated
Wed 01:09:00 AM 32.1276 -81.2021 North  Level Estimated
Wed 01:10:00 AM 32.1276 -81.2021 North  Level Estimated
Wed 01:11:00 AM 32.1276 -81.2021 North  Level Estimated
Wed 01:12:00 AM 32.1276 -81.2021 North  Level Estimated
Wed 01:13:00 AM 32.1276 -81.2021 North  Level Estimated
Wed 01:14:00 AM 32.1276 -81.2021 North  Level Estimated
Wed 01:15:00 AM 32.1276 -81.2021 North  Level Estimated
Wed 01:16:00 AM 32.1276 -81.2021 North  Level Estimated
Wed 01:17:00 AM 32.1276 -81.2021 North  Level Estimated
Wed 01:18:00 AM 32.1276 -81.2021 North  Level Estimated
Wed 01:19:00 AM 32.1276 -81.2021 North  Level Estimated

Login

Don't have an account? Register now (free) for customized features, flight alerts, and more!